Time;durP1;ratioP1;P1;durP2;ratioP2;P2;SDS_P1;SDS_P2;PMS_P1;PMS_P2;Temp;Humidity;BMP_temperature;BMP_pressure;BME280_temperature;BME280_humidity;BME280_pressure;Samples;Min_cycle;Max_cycle;Signal;HPM_P1;HPM_P2
2022/03/20 00:00:44;;;;;;;0.40;0.40;;;5.00;58.50;;;;;;5054702;28;20182;-67
2022/03/20 00:03:11;;;;;;;0.35;0.35;;;4.90;58.70;;;;;;5054776;28;20218;-67
2022/03/20 00:05:39;;;;;;;0.40;0.40;;;4.90;58.70;;;;;;5054765;28;20194;-67
2022/03/20 00:08:12;;;;;;;0.65;0.65;;;5.00;59.20;;;;;;5055081;28;20169;-67
2022/03/20 00:10:42;;;;;;;0.30;0.30;;;5.00;58.60;;;;;;5054400;28;20174;-67
2022/03/20 00:13:09;;;;;;;0.73;0.73;;;5.10;58.30;;;;;;5054807;28;20658;-67
2022/03/20 00:15:35;;;;;;;0.35;0.35;;;5.00;58.30;;;;;;5054587;28;20576;-67
2022/03/20 00:18:01;;;;;;;1.30;1.30;;;5.00;58.40;;;;;;5054477;28;20174;-67
2022/03/20 00:20:27;;;;;;;0.30;0.30;;;4.90;58.90;;;;;;5054285;28;20640;-67
2022/03/20 00:22:53;;;;;;;1.70;1.70;;;5.00;59.30;;;;;;5054462;28;20511;-67
2022/03/20 00:25:19;;;;;;;0.40;0.40;;;4.90;59.50;;;;;;5054334;28;20432;-66
2022/03/20 00:27:44;;;;;;;0.40;0.40;;;4.80;59.70;;;;;;5054328;28;20424;-66
2022/03/20 00:30:11;;;;;;;0.43;0.43;;;4.90;59.60;;;;;;5054255;28;20535;-67
2022/03/20 00:32:36;;;;;;;0.30;0.30;;;5.00;59.40;;;;;;5054323;28;20216;-67
2022/03/20 00:35:04;;;;;;;0.97;0.97;;;5.00;59.70;;;;;;5054093;28;20170;-67
2022/03/20 00:37:29;;;;;;;1.40;1.30;;;5.20;60.40;;;;;;5054477;28;20652;-66
2022/03/20 00:39:56;;;;;;;0.40;0.40;;;5.30;59.70;;;;;;5053902;28;20318;-67
2022/03/20 00:42:22;;;;;;;0.77;0.77;;;5.30;59.70;;;;;;5052723;28;20674;-66
2022/03/20 00:44:47;;;;;;;0.40;0.40;;;5.30;59.70;;;;;;5053999;28;20174;-67
2022/03/20 00:47:13;;;;;;;0.40;0.40;;;5.40;59.20;;;;;;5053844;28;20202;-67
2022/03/20 00:49:39;;;;;;;1.17;1.17;;;5.10;58.70;;;;;;5054273;28;20209;-66
2022/03/20 00:52:06;;;;;;;0.40;0.40;;;5.20;59.40;;;;;;5053767;28;20215;-66
2022/03/20 00:54:32;;;;;;;0.60;0.60;;;5.40;58.70;;;;;;5054101;28;20644;-67
2022/03/20 00:56:58;;;;;;;0.30;0.30;;;5.40;59.00;;;;;;5053943;28;20239;-67
2022/03/20 00:59:24;;;;;;;0.40;0.40;;;5.40;59.10;;;;;;5053935;28;20408;-66
2022/03/20 01:01:49;;;;;;;0.60;0.60;;;5.30;58.80;;;;;;5053381;28;20602;-67
2022/03/20 01:04:16;;;;;;;0.40;0.40;;;5.20;59.30;;;;;;5053694;28;20182;-67
2022/03/20 01:06:42;;;;;;;0.57;0.57;;;5.30;59.50;;;;;;5053567;28;20228;-67
2022/03/20 01:09:08;;;;;;;2.53;1.80;;;5.50;59.40;;;;;;5053624;28;20210;-67
2022/03/20 01:11:34;;;;;;;0.40;0.40;;;5.30;59.60;;;;;;5053546;28;20227;-67
2022/03/20 01:14:00;;;;;;;0.40;0.40;;;5.30;60.60;;;;;;5053759;28;20261;-67
2022/03/20 01:16:26;;;;;;;0.40;0.40;;;5.40;60.70;;;;;;5053440;28;20233;-67
2022/03/20 01:18:51;;;;;;;0.33;0.33;;;5.40;61.10;;;;;;5053514;28;20208;-66
2022/03/20 01:21:17;;;;;;;0.50;0.50;;;5.30;62.20;;;;;;5053330;28;20226;-67
2022/03/20 01:23:43;;;;;;;0.40;0.40;;;5.50;62.00;;;;;;5053494;28;20632;-67
2022/03/20 01:26:11;;;;;;;0.43;0.43;;;5.60;61.10;;;;;;5053363;28;20202;-67
2022/03/20 01:28:36;;;;;;;1.95;1.50;;;5.60;61.30;;;;;;5053216;28;20190;-67
2022/03/20 01:31:02;;;;;;;2.10;1.80;;;5.70;61.80;;;;;;5053214;28;20253;-67
2022/03/20 01:33:28;;;;;;;0.40;0.40;;;5.50;60.40;;;;;;5053221;28;20174;-67
2022/03/20 01:35:53;;;;;;;1.47;1.47;;;5.40;61.20;;;;;;5053479;28;20190;-67
2022/03/20 01:38:20;;;;;;;0.40;0.40;;;5.50;61.40;;;;;;5053262;28;20643;-66
2022/03/20 01:40:49;;;;;;;0.68;0.68;;;5.60;62.30;;;;;;5053045;28;20652;-67
2022/03/20 01:43:16;;;;;;;0.38;0.38;;;5.40;62.10;;;;;;5053333;28;20170;-67
2022/03/20 01:45:42;;;;;;;0.40;0.40;;;5.50;63.70;;;;;;5051686;28;20749;-67
2022/03/20 01:48:07;;;;;;;0.40;0.40;;;5.40;62.80;;;;;;5053290;28;20166;-66
2022/03/20 01:50:33;;;;;;;0.30;0.30;;;5.40;62.70;;;;;;5052920;28;20192;-66
2022/03/20 01:52:59;;;;;;;0.40;0.40;;;5.30;62.60;;;;;;5052950;28;20247;-67
2022/03/20 01:55:26;;;;;;;0.30;0.30;;;5.30;63.10;;;;;;5054453;28;20218;-67
2022/03/20 01:57:54;;;;;;;1.50;1.40;;;5.30;63.40;;;;;;5057148;28;20746;-67
2022/03/20 02:00:21;;;;;;;0.98;0.98;;;5.40;63.70;;;;;;5057179;28;20594;-67
2022/03/20 02:02:47;;;;;;;1.88;1.30;;;5.40;63.50;;;;;;5057214;28;20643;-67
2022/03/20 02:05:13;;;;;;;0.40;0.40;;;5.30;64.10;;;;;;5057147;28;20181;-66
2022/03/20 02:07:40;;;;;;;0.30;0.30;;;5.40;64.80;;;;;;5056996;28;20305;-66
2022/03/20 02:10:09;;;;;;;0.40;0.40;;;5.40;65.00;;;;;;5056764;28;20212;-67
2022/03/20 02:12:37;;;;;;;0.40;0.40;;;5.40;65.30;;;;;;5055750;28;20647;-67
2022/03/20 02:15:04;;;;;;;0.98;0.93;;;5.30;65.40;;;;;;5056780;28;20190;-67
2022/03/20 02:17:30;;;;;;;0.30;0.30;;;5.30;65.70;;;;;;5056932;28;20169;-66
2022/03/20 02:20:04;;;;;;;0.50;0.50;;;5.40;66.40;;;;;;5056634;28;20297;-66
2022/03/20 02:22:32;;;;;;;0.30;0.30;;;5.30;66.10;;;;;;5056900;28;20234;-67
2022/03/20 02:25:05;;;;;;;0.60;0.60;;;5.40;66.00;;;;;;5056785;28;20174;-66
2022/03/20 02:27:32;;;;;;;1.42;1.25;;;5.50;65.90;;;;;;5056858;28;20155;-66
2022/03/20 02:30:03;;;;;;;0.40;0.40;;;5.60;66.60;;;;;;5056383;28;20649;-66
2022/03/20 02:32:31;;;;;;;0.40;0.40;;;5.60;66.40;;;;;;5056664;28;20249;-67
2022/03/20 02:35:03;;;;;;;0.40;0.40;;;5.60;67.20;;;;;;5056599;28;20178;-67
2022/03/20 02:37:30;;;;;;;0.30;0.30;;;5.60;67.30;;;;;;5056422;28;20151;-67
2022/03/20 02:39:58;;;;;;;1.90;1.80;;;5.40;67.10;;;;;;5056646;28;20179;-67
2022/03/20 02:42:24;;;;;;;0.40;0.40;;;5.40;67.00;;;;;;5056342;28;20173;-67
2022/03/20 02:45:03;;;;;;;0.30;0.30;;;5.50;67.70;;;;;;5056490;28;20174;-67
2022/03/20 02:47:42;;;;;;;0.85;0.85;;;5.60;68.00;;;;;;5056274;28;20182;-67
2022/03/20 02:50:13;;;;;;;0.40;0.40;;;5.70;67.60;;;;;;5055998;28;20608;-66
2022/03/20 02:52:48;;;;;;;1.15;1.05;;;5.70;66.80;;;;;;5056146;28;20232;-66
2022/03/20 02:55:17;;;;;;;0.38;0.38;;;5.70;67.00;;;;;;5056207;28;20172;-67
2022/03/20 02:57:45;;;;;;;1.23;1.23;;;5.70;67.50;;;;;;5056070;28;20166;-67
2022/03/20 03:00:11;;;;;;;0.30;0.30;;;5.80;69.30;;;;;;5055840;28;20182;-67
2022/03/20 03:02:45;;;;;;;1.05;1.05;;;5.90;68.70;;;;;;5056088;28;20173;-66
2022/03/20 03:05:16;;;;;;;0.40;0.40;;;6.00;68.50;;;;;;5055996;28;20171;-67
2022/03/20 03:13:15;;;;;;;2.35;2.25;;;5.80;68.60;;;;;;5056481;28;20180;-67
2022/03/20 03:15:42;;;;;;;1.20;1.20;;;5.80;68.50;;;;;;5055636;28;20713;-67
2022/03/20 03:18:08;;;;;;;0.40;0.40;;;5.90;69.40;;;;;;5055686;28;20174;-66
2022/03/20 03:20:35;;;;;;;0.40;0.40;;;6.00;69.10;;;;;;5055393;28;20175;-67
2022/03/20 03:23:01;;;;;;;0.47;0.47;;;6.10;67.90;;;;;;5055636;28;20170;-67
2022/03/20 03:25:26;;;;;;;0.60;0.60;;;6.00;68.60;;;;;;5055590;28;20254;-67
2022/03/20 03:27:53;;;;;;;0.43;0.43;;;6.00;70.80;;;;;;5055731;28;20247;-67
2022/03/20 03:30:18;;;;;;;0.40;0.40;;;6.00;70.50;;;;;;5055205;28;20464;-67
2022/03/20 03:32:44;;;;;;;0.80;0.80;;;6.10;70.30;;;;;;5055496;28;20170;-67
2022/03/20 03:37:56;;;;;;;0.40;0.40;;;6.20;69.80;;;;;;5055720;28;20746;-66
2022/03/20 03:40:22;;;;;;;0.40;0.40;;;6.30;69.80;;;;;;5055326;28;20182;-67
2022/03/20 03:42:48;;;;;;;0.40;0.40;;;6.30;68.80;;;;;;5053994;28;20182;-67
2022/03/20 03:45:14;;;;;;;0.33;0.33;;;6.30;69.70;;;;;;5055346;28;20499;-67
2022/03/20 03:47:42;;;;;;;3.00;2.80;;;6.30;69.80;;;;;;5055190;28;20312;-67
2022/03/20 03:50:09;;;;;;;0.50;0.50;;;6.30;69.70;;;;;;5053651;28;20655;-66
2022/03/20 03:52:36;;;;;;;0.30;0.30;;;6.30;69.80;;;;;;5055062;28;20177;-67
2022/03/20 03:55:02;;;;;;;0.40;0.40;;;6.40;70.70;;;;;;5055092;28;20166;-67
2022/03/20 03:57:28;;;;;;;0.40;0.40;;;6.30;70.90;;;;;;5054909;28;20201;-67
2022/03/20 03:59:54;;;;;;;0.50;0.50;;;6.30;69.90;;;;;;5054932;28;20690;-66
2022/03/20 04:02:19;;;;;;;0.63;0.63;;;6.30;69.70;;;;;;5054898;28;20312;-66
2022/03/20 04:04:47;;;;;;;0.40;0.40;;;6.30;70.20;;;;;;5054972;28;20228;-66
2022/03/20 04:07:17;;;;;;;0.70;0.70;;;6.30;70.60;;;;;;5053373;28;20679;-67
2022/03/20 04:09:44;;;;;;;0.75;0.75;;;6.30;70.70;;;;;;5054671;28;20577;-67
2022/03/20 04:12:10;;;;;;;0.30;0.30;;;6.30;70.70;;;;;;5054526;28;20177;-67
2022/03/20 04:14:36;;;;;;;0.55;0.55;;;6.40;70.90;;;;;;5054636;28;20162;-66
2022/03/20 04:17:05;;;;;;;0.87;0.87;;;6.40;71.10;;;;;;5054519;28;20189;-67
2022/03/20 04:19:30;;;;;;;0.30;0.30;;;6.40;71.20;;;;;;5054196;28;20190;-66
2022/03/20 04:21:56;;;;;;;0.30;0.30;;;6.40;71.10;;;;;;5054275;28;20537;-67
2022/03/20 04:24:22;;;;;;;0.40;0.40;;;6.30;70.50;;;;;;5054451;28;20473;-67
2022/03/20 04:26:48;;;;;;;0.40;0.40;;;6.30;70.80;;;;;;5054319;28;20205;-67
2022/03/20 04:29:14;;;;;;;1.10;1.10;;;6.40;71.40;;;;;;5054550;28;20633;-67
2022/03/20 04:31:40;;;;;;;0.37;0.37;;;6.40;71.90;;;;;;5054030;28;20404;-66
2022/03/20 04:34:06;;;;;;;0.30;0.30;;;6.50;71.30;;;;;;5054264;28;20169;-67
2022/03/20 04:36:34;;;;;;;0.30;0.30;;;6.40;71.20;;;;;;5054393;28;20198;-67
2022/03/20 04:39:01;;;;;;;0.77;0.77;;;6.40;71.30;;;;;;5054131;28;20408;-66
2022/03/20 04:41:27;;;;;;;0.40;0.40;;;6.40;71.20;;;;;;5054183;28;20227;-67
2022/03/20 04:43:53;;;;;;;0.40;0.40;;;6.40;71.30;;;;;;5054158;28;20614;-66
2022/03/20 04:46:19;;;;;;;0.73;0.73;;;6.40;72.00;;;;;;5054071;28;20464;-67
2022/03/20 04:59:43;;;;;;;0.40;0.40;;;6.30;72.30;;;;;;5054076;28;20176;-69
2022/03/20 05:02:08;;;;;;;0.30;0.30;;;6.30;72.70;;;;;;5051483;28;20703;-67
2022/03/20 05:04:34;;;;;;;0.40;0.40;;;6.30;72.60;;;;;;5054133;28;20169;-67
2022/03/20 05:07:00;;;;;;;0.40;0.40;;;6.20;73.20;;;;;;5054376;28;20186;-72
2022/03/20 05:14:59;;;;;;;0.50;0.50;;;7.50;92.00;;;;;;5054194;28;20186;-71
2022/03/20 05:17:25;;;;;;;1.30;1.30;;;8.40;86.30;;;;;;5054114;28;20202;-71
2022/03/20 05:19:50;;;;;;;0.40;0.40;;;8.90;73.10;;;;;;5054181;28;20626;-70
2022/03/20 05:22:16;;;;;;;1.23;1.23;;;9.20;77.10;;;;;;5053589;28;20787;-69
2022/03/20 05:24:42;;;;;;;0.30;0.30;;;9.80;76.10;;;;;;5053826;28;20188;-71
2022/03/20 05:27:08;;;;;;;0.77;0.77;;;10.30;68.60;;;;;;5053399;28;20212;-71
2022/03/20 05:29:35;;;;;;;0.60;0.60;;;10.50;62.90;;;;;;5052914;28;20205;-71
2022/03/20 05:32:02;;;;;;;2.15;1.20;;;10.70;66.00;;;;;;5053454;28;20619;-69
2022/03/20 05:34:28;;;;;;;0.40;0.40;;;11.00;65.50;;;;;;5054119;28;20177;-69
2022/03/20 05:36:57;;;;;;;0.40;0.40;;;11.20;59.70;;;;;;5053563;28;20197;-71
2022/03/20 05:39:23;;;;;;;0.30;0.30;;;11.20;61.10;;;;;;5053729;28;20405;-70
2022/03/20 05:41:51;;;;;;;1.23;1.23;;;11.60;61.10;;;;;;5053465;28;20188;-68
2022/03/20 05:44:19;;;;;;;2.35;2.25;;;11.20;57.50;;;;;;5053700;28;20499;-68
2022/03/20 05:46:51;;;;;;;0.40;0.40;;;10.50;57.90;;;;;;5051239;28;20199;-68
2022/03/20 05:49:19;;;;;;;1.10;1.10;;;9.70;60.40;;;;;;5053341;28;20302;-67
2022/03/20 05:51:46;;;;;;;0.77;0.77;;;9.10;63.00;;;;;;5053169;28;20528;-67
2022/03/20 05:54:12;;;;;;;2.08;1.98;;;8.70;65.10;;;;;;5053439;28;20173;-67
2022/03/20 05:59:23;;;;;;;0.73;0.73;;;7.90;68.50;;;;;;5052463;28;20666;-67
2022/03/20 06:01:51;;;;;;;0.40;0.40;;;7.70;70.00;;;;;;5051997;28;20190;-67
2022/03/20 06:04:17;;;;;;;1.65;1.55;;;7.60;70.90;;;;;;5053600;28;20903;-67
2022/03/20 06:06:43;;;;;;;0.40;0.40;;;7.30;71.90;;;;;;5052981;28;20265;-67
2022/03/20 06:09:09;;;;;;;0.30;0.30;;;7.20;73.60;;;;;;5053163;28;20618;-67
2022/03/20 06:11:35;;;;;;;0.30;0.30;;;7.10;74.80;;;;;;5052796;28;20484;-67
2022/03/20 06:14:01;;;;;;;0.40;0.40;;;7.20;75.00;;;;;;5053174;28;20195;-67
2022/03/20 06:16:28;;;;;;;1.27;1.25;;;7.20;76.20;;;;;;5052883;28;20182;-66
2022/03/20 06:18:54;;;;;;;0.40;0.40;;;7.10;75.90;;;;;;5053551;28;20181;-67
2022/03/20 06:21:20;;;;;;;0.68;0.68;;;7.10;77.20;;;;;;5052947;28;20188;-67
2022/03/20 06:23:45;;;;;;;0.40;0.40;;;7.10;76.50;;;;;;5052936;28;20170;-67
2022/03/20 06:26:11;;;;;;;1.43;1.33;;;6.90;75.60;;;;;;5052701;28;20190;-67
2022/03/20 06:28:40;;;;;;;0.40;0.40;;;6.80;76.70;;;;;;5052724;28;20168;-67
2022/03/20 06:31:17;;;;;;;0.40;0.40;;;7.00;78.30;;;;;;5052489;28;20408;-66
2022/03/20 06:33:45;;;;;;;0.35;0.35;;;7.20;79.60;;;;;;5052845;28;20546;-66
2022/03/20 06:36:12;;;;;;;1.25;1.20;;;7.20;80.30;;;;;;5052876;28;20186;-67
2022/03/20 06:38:38;;;;;;;1.25;1.15;;;7.40;78.80;;;;;;5052695;28;20177;-67
2022/03/20 06:41:04;;;;;;;0.40;0.40;;;7.50;78.50;;;;;;5053371;28;20162;-66
2022/03/20 06:43:30;;;;;;;2.35;1.42;;;7.50;77.40;;;;;;5056491;28;20398;-67
2022/03/20 06:45:57;;;;;;;0.40;0.40;;;7.50;77.60;;;;;;5056286;28;20190;-67
2022/03/20 06:48:24;;;;;;;0.40;0.40;;;7.40;78.80;;;;;;5056490;28;20166;-66
2022/03/20 06:50:50;;;;;;;0.68;0.68;;;7.60;79.70;;;;;;5055982;28;20202;-67
2022/03/20 06:53:17;;;;;;;0.40;0.40;;;7.60;78.10;;;;;;5056373;28;20173;-67
2022/03/20 06:55:44;;;;;;;1.40;1.40;;;7.70;78.80;;;;;;5056062;28;20197;-67
2022/03/20 06:58:10;;;;;;;0.40;0.40;;;7.50;78.10;;;;;;5056387;28;20628;-67
2022/03/20 07:00:36;;;;;;;0.50;0.50;;;7.60;76.90;;;;;;5055818;28;20189;-67
2022/03/20 07:03:03;;;;;;;0.40;0.40;;;7.50;77.40;;;;;;5056105;28;20624;-66
2022/03/20 07:05:30;;;;;;;0.80;0.80;;;7.60;78.70;;;;;;5056028;28;20243;-66
2022/03/20 07:07:56;;;;;;;0.60;0.60;;;7.70;79.10;;;;;;5055931;28;20538;-66
2022/03/20 07:10:23;;;;;;;0.40;0.40;;;7.90;79.70;;;;;;5053840;28;20202;-67
2022/03/20 07:13:48;;;;;;;0.98;0.98;;;7.90;80.80;;;;;;5055674;28;20401;-66
2022/03/20 07:15:43;;;;;;;1.48;1.25;;;7.80;81.00;;;;;;5055703;28;20194;-68
2022/03/20 07:18:19;;;;;;;0.85;0.85;;;7.80;82.10;;;;;;5055903;28;20161;-69
2022/03/20 07:20:48;;;;;;;0.40;0.40;;;8.00;82.40;;;;;;5055974;28;20174;-68
2022/03/20 07:23:14;;;;;;;0.40;0.40;;;8.10;83.90;;;;;;5056206;28;20254;-68
2022/03/20 07:31:10;;;;;;;0.40;0.40;;;8.70;86.60;;;;;;5055806;28;20736;-70
2022/03/20 07:33:36;;;;;;;0.40;0.40;;;8.80;85.20;;;;;;5055795;28;20257;-67
2022/03/20 07:36:03;;;;;;;0.55;0.55;;;8.90;83.10;;;;;;5054223;28;20546;-67
2022/03/20 07:38:29;;;;;;;0.70;0.70;;;8.80;81.60;;;;;;5054837;28;20171;-67
2022/03/20 07:40:55;;;;;;;1.60;1.60;;;9.00;80.90;;;;;;5055273;28;20267;-67
2022/03/20 07:43:21;;;;;;;0.40;0.40;;;9.30;79.80;;;;;;5055225;28;20207;-68
2022/03/20 07:45:46;;;;;;;0.53;0.53;;;9.50;79.10;;;;;;5054416;28;20187;-67
2022/03/20 07:48:13;;;;;;;0.40;0.40;;;9.70;76.80;;;;;;5053865;28;20246;-69
2022/03/20 07:50:38;;;;;;;0.50;0.50;;;9.80;75.40;;;;;;5055070;28;20782;-68
2022/03/20 07:53:05;;;;;;;1.73;1.73;;;9.80;75.20;;;;;;5051412;28;20182;-68
2022/03/20 07:55:31;;;;;;;0.70;0.70;;;9.70;76.50;;;;;;5054087;28;20663;-67
2022/03/20 07:58:00;;;;;;;3.85;0.80;;;9.80;77.60;;;;;;5054500;28;20629;-67
2022/03/20 08:00:26;;;;;;;0.30;0.30;;;9.90;76.60;;;;;;5054548;28;20191;-67
2022/03/20 08:02:51;;;;;;;0.50;0.50;;;9.90;74.90;;;;;;5053090;28;20187;-68
2022/03/20 08:05:18;;;;;;;2.63;1.00;;;9.90;74.80;;;;;;5054704;28;20177;-68
2022/03/20 08:07:44;;;;;;;1.00;1.00;;;9.90;73.40;;;;;;5054592;28;20253;-68
2022/03/20 08:10:12;;;;;;;1.47;1.47;;;9.90;74.20;;;;;;5052414;28;20648;-68
2022/03/20 08:12:38;;;;;;;0.30;0.30;;;10.20;74.60;;;;;;5054857;28;20413;-67
2022/03/20 08:15:06;;;;;;;0.55;0.55;;;10.60;73.60;;;;;;5054596;28;20230;-68
2022/03/20 08:17:41;;;;;;;2.95;2.67;;;10.90;72.00;;;;;;5054506;28;20180;-67
2022/03/20 08:20:07;;;;;;;0.40;0.40;;;11.10;69.20;;;;;;5054476;28;20181;-67
2022/03/20 08:22:33;;;;;;;0.70;0.70;;;11.00;67.90;;;;;;5054610;28;20176;-67
2022/03/20 08:24:58;;;;;;;2.10;1.80;;;11.00;68.20;;;;;;5054653;28;20250;-67
2022/03/20 08:27:24;;;;;;;1.17;1.17;;;11.00;68.70;;;;;;5054415;28;20659;-68
2022/03/20 08:29:50;;;;;;;0.43;0.43;;;11.10;69.50;;;;;;5054487;28;20186;-68
2022/03/20 08:32:16;;;;;;;0.30;0.30;;;11.20;69.90;;;;;;5054301;28;20184;-68
2022/03/20 08:34:41;;;;;;;0.40;0.40;;;11.20;68.80;;;;;;5052448;28;20195;-68
2022/03/20 08:37:07;;;;;;;0.50;0.50;;;11.30;68.00;;;;;;5054705;28;20228;-67
2022/03/20 08:39:33;;;;;;;0.53;0.53;;;11.50;68.10;;;;;;5054153;28;20231;-67
2022/03/20 08:41:58;;;;;;;0.30;0.30;;;12.00;66.40;;;;;;5052562;28;20170;-67
2022/03/20 08:44:26;;;;;;;0.77;0.77;;;12.50;65.70;;;;;;5052948;28;20179;-67
2022/03/20 08:46:52;;;;;;;0.77;0.77;;;13.10;63.60;;;;;;5053308;28;20212;-67
2022/03/20 08:49:19;;;;;;;1.10;1.10;;;13.50;60.50;;;;;;5053212;28;20226;-68
2022/03/20 08:51:45;;;;;;;0.82;0.82;;;13.60;59.80;;;;;;5053206;28;20227;-67
2022/03/20 08:54:11;;;;;;;0.57;0.57;;;13.80;59.10;;;;;;5053343;28;20175;-68
2022/03/20 08:56:37;;;;;;;0.30;0.30;;;14.30;57.50;;;;;;5054002;28;20186;-68
2022/03/20 08:59:03;;;;;;;1.57;1.47;;;14.50;57.00;;;;;;5053852;28;20413;-67
2022/03/20 09:01:30;;;;;;;0.30;0.30;;;14.90;54.40;;;;;;5053590;28;20933;-68
2022/03/20 09:03:56;;;;;;;0.40;0.40;;;15.60;53.60;;;;;;5053794;28;20504;-68
2022/03/20 09:06:22;;;;;;;0.87;0.50;;;16.90;52.90;;;;;;5053576;28;20922;-65
2022/03/20 09:08:49;;;;;;;1.23;1.23;;;19.00;48.30;;;;;;5053341;28;20181;-66
2022/03/20 09:11:16;;;;;;;1.60;1.03;;;20.80;43.00;;;;;;5053415;28;20495;-65
2022/03/20 09:13:41;;;;;;;1.27;1.27;;;22.10;39.90;;;;;;5053802;28;20434;-65
2022/03/20 09:19:03;;;;;;;0.40;0.40;;;23.20;36.20;;;;;;5053525;28;20182;-66
2022/03/20 09:21:32;;;;;;;1.47;1.37;;;24.10;35.60;;;;;;5053276;28;20777;-65
2022/03/20 09:23:58;;;;;;;3.30;1.80;;;24.80;33.80;;;;;;5053466;28;20397;-66
2022/03/20 09:26:24;;;;;;;1.27;1.13;;;25.30;33.00;;;;;;5051741;28;20433;-65
2022/03/20 09:28:50;;;;;;;0.90;0.90;;;25.70;31.30;;;;;;5052851;28;20505;-66
2022/03/20 09:31:16;;;;;;;1.13;1.13;;;26.00;31.00;;;;;;5053670;28;20802;-65
2022/03/20 09:33:43;;;;;;;1.20;1.10;;;26.10;29.70;;;;;;5051225;28;20440;-65
2022/03/20 09:36:10;;;;;;;0.60;0.60;;;25.10;29.70;;;;;;5053297;28;20421;-66
2022/03/20 09:38:36;;;;;;;0.70;0.60;;;25.00;29.50;;;;;;5053288;28;20774;-65
2022/03/20 09:41:07;;;;;;;1.27;1.23;;;25.30;28.60;;;;;;5053165;28;20408;-65
2022/03/20 09:43:42;;;;;;;1.60;1.27;;;25.40;27.60;;;;;;5053322;28;20813;-65
2022/03/20 09:46:08;;;;;;;3.50;3.30;;;23.70;27.60;;;;;;5053295;28;20489;-66
2022/03/20 09:48:35;;;;;;;2.00;1.03;;;22.80;28.60;;;;;;5052800;28;20406;-65
2022/03/20 09:51:02;;;;;;;0.50;0.50;;;22.10;29.90;;;;;;5053193;28;20173;-65
2022/03/20 09:53:29;;;;;;;1.70;0.90;;;22.90;30.20;;;;;;5053125;28;20404;-64
2022/03/20 09:55:56;;;;;;;0.70;0.70;;;22.40;29.40;;;;;;5053021;28;20431;-65
2022/03/20 09:58:30;;;;;;;0.30;0.30;;;22.10;29.70;;;;;;5053386;28;20887;-65
2022/03/20 10:00:56;;;;;;;1.90;1.80;;;22.10;29.90;;;;;;5052848;28;20442;-65
2022/03/20 10:03:25;;;;;;;0.40;0.40;;;22.60;30.00;;;;;;5053488;28;20412;-65
2022/03/20 10:06:17;;;;;;;1.57;1.57;;;22.10;29.40;;;;;;5051817;28;20567;-65
2022/03/20 10:09:10;;;;;;;0.50;0.50;;;21.10;30.40;;;;;;5052283;28;20410;-65
2022/03/20 10:11:39;;;;;;;1.70;1.60;;;20.40;30.70;;;;;;5052342;28;20450;-65
2022/03/20 10:14:06;;;;;;;1.20;1.10;;;22.10;30.00;;;;;;5052766;28;20411;-65
2022/03/20 10:16:32;;;;;;;0.33;0.33;;;22.80;27.90;;;;;;5054334;28;20578;-65
2022/03/20 10:18:58;;;;;;;0.80;0.80;;;22.80;27.80;;;;;;5056711;28;20416;-65
2022/03/20 10:21:44;;;;;;;1.07;1.07;;;21.20;27.50;;;;;;5056675;28;20414;-65
2022/03/20 10:24:18;;;;;;;0.37;0.37;;;20.00;29.20;;;;;;5056760;28;20522;-66
2022/03/20 10:26:45;;;;;;;0.70;0.70;;;20.00;29.60;;;;;;5056627;28;20417;-66
2022/03/20 10:29:15;;;;;;;0.47;0.47;;;21.30;29.20;;;;;;5056699;28;20449;-65
2022/03/20 10:31:51;;;;;;;0.73;0.73;;;22.80;27.60;;;;;;5056310;28;20412;-65
2022/03/20 10:34:18;;;;;;;0.77;0.77;;;23.30;27.20;;;;;;5056427;28;20449;-65
2022/03/20 10:36:46;;;;;;;0.50;0.50;;;22.70;27.10;;;;;;5056433;28;20483;-65
2022/03/20 10:39:19;;;;;;;0.80;0.80;;;22.80;27.30;;;;;;5056344;28;20414;-66
2022/03/20 10:41:48;;;;;;;0.50;0.50;;;23.80;27.00;;;;;;5056466;28;20410;-65
2022/03/20 10:44:18;;;;;;;0.90;0.90;;;23.30;26.50;;;;;;5056824;28;20441;-66
2022/03/20 10:47:04;;;;;;;1.17;0.57;;;23.10;27.00;;;;;;5056384;28;20471;-65
2022/03/20 10:49:32;;;;;;;0.40;0.40;;;23.70;26.70;;;;;;5055941;28;20942;-65
2022/03/20 10:52:05;;;;;;;0.30;0.30;;;23.50;26.40;;;;;;5054279;28;20413;-65
2022/03/20 10:54:43;;;;;;;1.93;1.47;;;22.80;26.80;;;;;;5055515;28;20396;-66
2022/03/20 10:57:11;;;;;;;2.47;1.47;;;21.90;27.00;;;;;;5054584;28;20460;-66
2022/03/20 10:59:38;;;;;;;1.00;1.00;;;21.50;28.20;;;;;;5053571;28;20413;-65
2022/03/20 11:02:08;;;;;;;0.40;0.40;;;21.90;27.90;;;;;;5055085;28;20891;-65
2022/03/20 11:04:34;;;;;;;0.50;0.50;;;21.80;28.10;;;;;;5056056;28;20736;-66
2022/03/20 11:07:06;;;;;;;0.57;0.57;;;22.00;27.60;;;;;;5055911;28;20468;-66
2022/03/20 11:09:31;;;;;;;0.50;0.50;;;21.40;28.00;;;;;;5055695;28;20540;-65
2022/03/20 11:11:58;;;;;;;0.80;0.80;;;20.30;28.50;;;;;;5056220;28;20441;-66
2022/03/20 11:14:26;;;;;;;1.07;0.80;;;20.10;29.70;;;;;;5055591;28;20546;-66
2022/03/20 11:17:06;;;;;;;0.60;0.60;;;19.10;29.40;;;;;;5055497;28;20425;-65
2022/03/20 11:19:34;;;;;;;2.10;1.83;;;18.70;30.30;;;;;;5054297;28;20912;-65
2022/03/20 11:22:09;;;;;;;0.30;0.30;;;18.30;30.00;;;;;;5055310;28;20412;-65
2022/03/20 11:24:36;;;;;;;0.60;0.60;;;17.50;30.70;;;;;;5055590;28;20409;-65
2022/03/20 11:27:04;;;;;;;0.30;0.30;;;16.70;32.60;;;;;;5054753;28;20566;-66
2022/03/20 11:29:36;;;;;;;0.40;0.40;;;15.90;32.90;;;;;;5054650;28;20829;-65
2022/03/20 11:32:03;;;;;;;0.63;0.63;;;15.20;33.50;;;;;;5055282;28;20457;-65
2022/03/20 11:34:30;;;;;;;1.10;1.07;;;15.30;33.90;;;;;;5055532;28;20397;-65
2022/03/20 11:37:12;;;;;;;0.30;0.30;;;15.30;33.90;;;;;;5055228;28;20480;-65
2022/03/20 11:40:08;;;;;;;1.50;1.40;;;15.20;35.00;;;;;;5055465;28;20417;-65
2022/03/20 11:42:33;;;;;;;0.50;0.50;;;15.50;34.50;;;;;;5055269;28;20409;-65
2022/03/20 11:44:59;;;;;;;0.30;0.30;;;14.60;33.80;;;;;;5055300;28;20829;-65
2022/03/20 11:47:29;;;;;;;1.03;0.93;;;14.70;35.30;;;;;;5054875;28;20268;-65
2022/03/20 11:50:27;;;;;;;5.03;1.70;;;15.10;34.80;;;;;;5054910;28;20336;-65
2022/03/20 11:53:00;;;;;;;0.70;0.70;;;15.70;35.00;;;;;;5055006;28;20801;-65
2022/03/20 11:55:37;;;;;;;0.50;0.50;;;15.90;33.80;;;;;;5054847;28;20828;-65
2022/03/20 11:58:10;;;;;;;0.80;0.80;;;15.90;33.20;;;;;;5054797;28;20396;-65
2022/03/20 12:00:40;;;;;;;0.30;0.30;;;15.70;34.10;;;;;;5054554;28;20429;-65
2022/03/20 12:03:14;;;;;;;0.37;0.37;;;15.00;34.80;;;;;;5054846;28;20406;-65
2022/03/20 12:06:21;;;;;;;0.67;0.67;;;15.20;35.20;;;;;;5054606;28;21078;-65
2022/03/20 12:09:19;;;;;;;19.23;1.83;;;15.50;35.00;;;;;;5053539;28;20501;-65
2022/03/20 12:11:56;;;;;;;0.40;0.40;;;15.60;34.00;;;;;;5054569;28;20758;-65
2022/03/20 12:14:28;;;;;;;0.30;0.30;;;15.90;33.50;;;;;;5054666;28;20408;-65
2022/03/20 12:16:55;;;;;;;0.50;0.50;;;15.90;33.40;;;;;;5054597;28;20510;-65
2022/03/20 12:19:24;;;;;;;1.90;0.80;;;14.90;33.10;;;;;;5054454;28;20485;-65
2022/03/20 12:21:55;;;;;;;0.60;0.60;;;14.20;34.40;;;;;;5054203;28;20731;-65
2022/03/20 12:24:45;;;;;;;0.67;0.67;;;14.20;35.10;;;;;;5054362;28;20878;-65
2022/03/20 12:27:20;;;;;;;0.40;0.40;;;15.00;35.30;;;;;;5054220;28;20449;-65
2022/03/20 12:30:08;;;;;;;0.30;0.30;;;15.70;34.70;;;;;;5054362;28;20452;-65
2022/03/20 12:32:52;;;;;;;0.30;0.30;;;16.00;33.30;;;;;;5054016;28;20417;-65
2022/03/20 12:35:45;;;;;;;0.50;0.50;;;15.70;33.30;;;;;;5054383;28;20774;-65
2022/03/20 12:38:41;;;;;;;0.30;0.30;;;14.70;34.20;;;;;;5054465;28;20479;-64
2022/03/20 12:41:17;;;;;;;0.40;0.40;;;14.60;35.60;;;;;;5053889;28;20397;-68
2022/03/20 12:43:56;;;;;;;0.53;0.53;;;15.10;34.40;;;;;;5054248;28;20776;-67
2022/03/20 12:46:42;;;;;;;0.40;0.40;;;15.60;35.50;;;;;;5054072;28;20421;-68
2022/03/20 12:49:15;;;;;;;0.40;0.40;;;15.60;34.00;;;;;;5054353;28;20528;-67
2022/03/20 12:51:42;;;;;;;0.50;0.50;;;15.30;34.20;;;;;;5054098;28;20424;-67
2022/03/20 12:54:15;;;;;;;0.60;0.60;;;15.00;34.70;;;;;;5052895;28;20415;-68
2022/03/20 12:56:52;;;;;;;0.40;0.40;;;14.80;35.20;;;;;;5054174;28;20532;-68
2022/03/20 12:59:23;;;;;;;0.93;0.93;;;14.70;35.80;;;;;;5054129;28;20454;-67
2022/03/20 13:01:49;;;;;;;0.30;0.30;;;14.70;35.40;;;;;;5053716;28;20432;-66
2022/03/20 13:04:19;;;;;;;3.90;0.70;;;15.00;36.10;;;;;;5054029;28;20610;-66
2022/03/20 13:06:45;;;;;;;0.30;0.30;;;14.90;35.20;;;;;;5053709;28;20252;-67
2022/03/20 13:09:12;;;;;;;0.30;0.30;;;15.00;35.00;;;;;;5053658;28;20480;-66
2022/03/20 13:11:53;;;;;;;0.60;0.60;;;15.10;34.50;;;;;;5053557;28;20436;-67
2022/03/20 13:14:21;;;;;;;0.40;0.40;;;15.50;35.70;;;;;;5053830;28;20741;-67
2022/03/20 13:16:52;;;;;;;0.30;0.30;;;15.40;34.60;;;;;;5053820;28;20440;-66
2022/03/20 13:19:44;;;;;;;0.60;0.60;;;15.10;34.40;;;;;;5053569;28;20908;-67
2022/03/20 13:22:14;;;;;;;0.30;0.30;;;14.70;35.00;;;;;;5053103;28;20431;-66
2022/03/20 13:24:42;;;;;;;0.30;0.30;;;14.70;34.90;;;;;;5053872;28;20397;-67
2022/03/20 13:27:10;;;;;;;0.30;0.30;;;14.30;35.30;;;;;;5053289;28;20511;-66
2022/03/20 13:29:40;;;;;;;0.80;0.80;;;14.40;35.20;;;;;;5053169;28;20452;-66
2022/03/20 13:32:09;;;;;;;0.30;0.30;;;14.30;35.00;;;;;;5053341;28;20867;-66
2022/03/20 13:34:47;;;;;;;0.40;0.40;;;14.50;35.50;;;;;;5053465;28;20411;-66
2022/03/20 13:37:15;;;;;;;0.60;0.60;;;14.80;35.20;;;;;;5053360;28;20849;-66